sensor_id;sensor_type;location;lat;lon;timestamp;P1;durP1;ratioP1;P2;durP2;ratioP2
82930;SDS011;72705;53.346;10.248;2023-10-13T00:02:05;14.13;;;6.25;;
82930;SDS011;72705;53.346;10.248;2023-10-13T00:04:31;13.82;;;5.57;;
82930;SDS011;72705;53.346;10.248;2023-10-13T00:07:03;16.10;;;5.75;;
82930;SDS011;72705;53.346;10.248;2023-10-13T00:09:29;16.10;;;6.63;;
82930;SDS011;72705;53.346;10.248;2023-10-13T00:11:58;18.23;;;5.70;;
82930;SDS011;72705;53.346;10.248;2023-10-13T00:14:24;13.85;;;6.07;;
82930;SDS011;72705;53.346;10.248;2023-10-13T00:17:02;14.93;;;5.78;;
82930;SDS011;72705;53.346;10.248;2023-10-13T00:19:30;18.55;;;6.65;;
82930;SDS011;72705;53.346;10.248;2023-10-13T00:22:03;16.98;;;6.00;;
82930;SDS011;72705;53.346;10.248;2023-10-13T00:24:34;17.15;;;5.85;;
82930;SDS011;72705;53.346;10.248;2023-10-13T00:27:07;20.23;;;6.25;;
82930;SDS011;72705;53.346;10.248;2023-10-13T00:29:36;18.95;;;6.63;;
82930;SDS011;72705;53.346;10.248;2023-10-13T00:32:02;19.23;;;6.85;;
82930;SDS011;72705;53.346;10.248;2023-10-13T00:34:29;16.27;;;6.10;;
82930;SDS011;72705;53.346;10.248;2023-10-13T00:37:03;22.40;;;7.43;;
82930;SDS011;72705;53.346;10.248;2023-10-13T00:39:42;18.30;;;6.57;;
82930;SDS011;72705;53.346;10.248;2023-10-13T00:42:14;18.83;;;6.95;;
82930;SDS011;72705;53.346;10.248;2023-10-13T00:44:45;19.23;;;7.40;;
82930;SDS011;72705;53.346;10.248;2023-10-13T00:47:14;24.42;;;7.55;;
82930;SDS011;72705;53.346;10.248;2023-10-13T00:49:46;16.50;;;6.70;;
82930;SDS011;72705;53.346;10.248;2023-10-13T00:52:13;17.17;;;6.55;;
82930;SDS011;72705;53.346;10.248;2023-10-13T00:54:40;23.35;;;7.03;;
82930;SDS011;72705;53.346;10.248;2023-10-13T00:57:11;19.30;;;7.25;;
82930;SDS011;72705;53.346;10.248;2023-10-13T00:59:57;17.35;;;7.18;;
82930;SDS011;72705;53.346;10.248;2023-10-13T01:02:23;19.30;;;7.78;;
82930;SDS011;72705;53.346;10.248;2023-10-13T01:05:07;18.58;;;8.20;;
82930;SDS011;72705;53.346;10.248;2023-10-13T01:07:44;19.92;;;8.00;;
82930;SDS011;72705;53.346;10.248;2023-10-13T01:10:12;24.42;;;8.00;;
82930;SDS011;72705;53.346;10.248;2023-10-13T01:12:39;24.13;;;9.10;;
82930;SDS011;72705;53.346;10.248;2023-10-13T01:15:07;23.80;;;8.82;;
82930;SDS011;72705;53.346;10.248;2023-10-13T01:17:36;22.60;;;8.52;;
82930;SDS011;72705;53.346;10.248;2023-10-13T01:20:01;20.45;;;8.85;;
82930;SDS011;72705;53.346;10.248;2023-10-13T01:22:30;22.70;;;8.80;;
82930;SDS011;72705;53.346;10.248;2023-10-13T01:24:56;28.95;;;9.20;;
82930;SDS011;72705;53.346;10.248;2023-10-13T01:27:39;22.80;;;8.95;;
82930;SDS011;72705;53.346;10.248;2023-10-13T01:30:05;23.60;;;7.82;;
82930;SDS011;72705;53.346;10.248;2023-10-13T01:32:35;20.77;;;8.85;;
82930;SDS011;72705;53.346;10.248;2023-10-13T01:35:06;19.75;;;9.38;;
82930;SDS011;72705;53.346;10.248;2023-10-13T01:37:32;21.48;;;8.90;;
82930;SDS011;72705;53.346;10.248;2023-10-13T01:39:57;23.45;;;9.02;;
82930;SDS011;72705;53.346;10.248;2023-10-13T01:42:22;23.07;;;10.20;;
82930;SDS011;72705;53.346;10.248;2023-10-13T01:44:49;29.77;;;9.32;;
82930;SDS011;72705;53.346;10.248;2023-10-13T01:47:15;24.25;;;9.85;;
82930;SDS011;72705;53.346;10.248;2023-10-13T01:49:43;24.17;;;9.63;;
82930;SDS011;72705;53.346;10.248;2023-10-13T01:52:12;29.33;;;9.27;;
82930;SDS011;72705;53.346;10.248;2023-10-13T01:54:40;30.63;;;10.68;;
82930;SDS011;72705;53.346;10.248;2023-10-13T01:57:12;24.85;;;9.82;;
82930;SDS011;72705;53.346;10.248;2023-10-13T01:59:44;25.15;;;9.73;;
82930;SDS011;72705;53.346;10.248;2023-10-13T02:02:13;22.25;;;8.55;;
82930;SDS011;72705;53.346;10.248;2023-10-13T02:04:39;27.33;;;10.02;;
82930;SDS011;72705;53.346;10.248;2023-10-13T02:07:14;25.23;;;10.52;;
82930;SDS011;72705;53.346;10.248;2023-10-13T02:09:40;28.35;;;10.00;;
82930;SDS011;72705;53.346;10.248;2023-10-13T02:12:07;28.13;;;10.15;;
82930;SDS011;72705;53.346;10.248;2023-10-13T02:14:34;29.48;;;11.40;;
82930;SDS011;72705;53.346;10.248;2023-10-13T02:17:01;26.83;;;10.38;;
82930;SDS011;72705;53.346;10.248;2023-10-13T02:19:41;37.25;;;11.80;;
82930;SDS011;72705;53.346;10.248;2023-10-13T02:22:11;31.90;;;12.32;;
82930;SDS011;72705;53.346;10.248;2023-10-13T02:24:49;30.83;;;12.88;;
82930;SDS011;72705;53.346;10.248;2023-10-13T02:27:17;34.45;;;11.60;;
82930;SDS011;72705;53.346;10.248;2023-10-13T02:29:42;31.73;;;11.37;;
82930;SDS011;72705;53.346;10.248;2023-10-13T02:32:11;34.40;;;13.02;;
82930;SDS011;72705;53.346;10.248;2023-10-13T02:34:55;36.65;;;13.30;;
82930;SDS011;72705;53.346;10.248;2023-10-13T02:37:30;33.20;;;12.27;;
82930;SDS011;72705;53.346;10.248;2023-10-13T02:39:55;32.73;;;12.43;;
82930;SDS011;72705;53.346;10.248;2023-10-13T02:42:22;37.95;;;12.48;;
82930;SDS011;72705;53.346;10.248;2023-10-13T02:44:48;32.80;;;12.27;;
82930;SDS011;72705;53.346;10.248;2023-10-13T02:47:14;35.40;;;13.63;;
82930;SDS011;72705;53.346;10.248;2023-10-13T02:49:39;33.27;;;14.90;;
82930;SDS011;72705;53.346;10.248;2023-10-13T02:52:08;37.30;;;13.65;;
82930;SDS011;72705;53.346;10.248;2023-10-13T02:54:37;37.20;;;14.38;;
82930;SDS011;72705;53.346;10.248;2023-10-13T02:57:12;43.13;;;14.60;;
82930;SDS011;72705;53.346;10.248;2023-10-13T02:59:41;39.90;;;15.50;;
82930;SDS011;72705;53.346;10.248;2023-10-13T03:02:20;38.75;;;13.93;;
82930;SDS011;72705;53.346;10.248;2023-10-13T03:04:50;43.33;;;15.68;;
82930;SDS011;72705;53.346;10.248;2023-10-13T03:07:16;50.33;;;16.58;;
82930;SDS011;72705;53.346;10.248;2023-10-13T03:09:50;45.90;;;16.77;;
82930;SDS011;72705;53.346;10.248;2023-10-13T03:12:17;51.88;;;17.77;;
82930;SDS011;72705;53.346;10.248;2023-10-13T03:14:43;56.03;;;17.88;;
82930;SDS011;72705;53.346;10.248;2023-10-13T03:17:19;54.30;;;17.05;;
82930;SDS011;72705;53.346;10.248;2023-10-13T03:19:58;43.80;;;17.15;;
82930;SDS011;72705;53.346;10.248;2023-10-13T03:22:23;59.15;;;19.42;;
82930;SDS011;72705;53.346;10.248;2023-10-13T03:24:56;57.90;;;18.50;;
82930;SDS011;72705;53.346;10.248;2023-10-13T03:27:25;68.47;;;20.45;;
82930;SDS011;72705;53.346;10.248;2023-10-13T03:30:04;70.35;;;21.42;;
82930;SDS011;72705;53.346;10.248;2023-10-13T03:32:35;70.03;;;18.05;;
82930;SDS011;72705;53.346;10.248;2023-10-13T03:35:07;70.65;;;23.25;;
82930;SDS011;72705;53.346;10.248;2023-10-13T03:37:38;67.88;;;21.58;;
82930;SDS011;72705;53.346;10.248;2023-10-13T03:40:04;61.95;;;20.75;;
82930;SDS011;72705;53.346;10.248;2023-10-13T03:42:46;64.78;;;19.80;;
82930;SDS011;72705;53.346;10.248;2023-10-13T03:45:37;55.58;;;20.30;;
82930;SDS011;72705;53.346;10.248;2023-10-13T03:48:12;61.75;;;18.23;;
82930;SDS011;72705;53.346;10.248;2023-10-13T03:50:49;60.17;;;19.52;;
82930;SDS011;72705;53.346;10.248;2023-10-13T03:53:39;55.85;;;18.27;;
82930;SDS011;72705;53.346;10.248;2023-10-13T03:56:25;55.50;;;18.38;;
82930;SDS011;72705;53.346;10.248;2023-10-13T03:58:52;49.97;;;17.90;;
82930;SDS011;72705;53.346;10.248;2023-10-13T04:01:19;57.03;;;19.33;;
82930;SDS011;72705;53.346;10.248;2023-10-13T04:03:50;57.50;;;20.65;;
82930;SDS011;72705;53.346;10.248;2023-10-13T04:06:23;57.78;;;18.42;;
82930;SDS011;72705;53.346;10.248;2023-10-13T04:09:09;64.55;;;21.00;;
82930;SDS011;72705;53.346;10.248;2023-10-13T04:11:53;58.15;;;19.52;;
82930;SDS011;72705;53.346;10.248;2023-10-13T04:14:24;64.45;;;21.85;;
82930;SDS011;72705;53.346;10.248;2023-10-13T04:17:10;67.97;;;21.38;;
82930;SDS011;72705;53.346;10.248;2023-10-13T04:19:47;71.57;;;24.08;;
82930;SDS011;72705;53.346;10.248;2023-10-13T04:25:13;69.28;;;21.52;;
82930;SDS011;72705;53.346;10.248;2023-10-13T04:27:57;66.65;;;22.08;;
82930;SDS011;72705;53.346;10.248;2023-10-13T04:30:41;69.85;;;23.90;;
82930;SDS011;72705;53.346;10.248;2023-10-13T04:33:13;74.75;;;23.25;;
82930;SDS011;72705;53.346;10.248;2023-10-13T04:41:18;86.20;;;29.30;;
82930;SDS011;72705;53.346;10.248;2023-10-13T04:43:47;97.22;;;29.20;;
82930;SDS011;72705;53.346;10.248;2023-10-13T04:46:25;92.50;;;27.35;;
82930;SDS011;72705;53.346;10.248;2023-10-13T04:49:00;106.05;;;29.95;;
82930;SDS011;72705;53.346;10.248;2023-10-13T04:54:15;92.25;;;30.17;;
82930;SDS011;72705;53.346;10.248;2023-10-13T04:56:51;104.78;;;33.40;;
82930;SDS011;72705;53.346;10.248;2023-10-13T04:59:46;100.90;;;32.83;;
82930;SDS011;72705;53.346;10.248;2023-10-13T05:02:41;110.57;;;33.05;;
82930;SDS011;72705;53.346;10.248;2023-10-13T05:05:27;114.65;;;33.90;;
82930;SDS011;72705;53.346;10.248;2023-10-13T05:07:56;108.75;;;35.92;;
82930;SDS011;72705;53.346;10.248;2023-10-13T05:10:39;107.18;;;36.95;;
82930;SDS011;72705;53.346;10.248;2023-10-13T05:13:23;119.55;;;36.90;;
82930;SDS011;72705;53.346;10.248;2023-10-13T05:16:07;108.88;;;37.78;;
82930;SDS011;72705;53.346;10.248;2023-10-13T05:18:51;115.18;;;38.72;;
82930;SDS011;72705;53.346;10.248;2023-10-13T05:21:35;123.13;;;38.47;;
82930;SDS011;72705;53.346;10.248;2023-10-13T05:24:19;106.20;;;37.33;;
82930;SDS011;72705;53.346;10.248;2023-10-13T05:27:03;116.22;;;38.50;;
82930;SDS011;72705;53.346;10.248;2023-10-13T05:29:47;111.85;;;36.33;;
82930;SDS011;72705;53.346;10.248;2023-10-13T05:32:32;108.70;;;37.05;;
82930;SDS011;72705;53.346;10.248;2023-10-13T05:35:16;105.68;;;38.60;;
82930;SDS011;72705;53.346;10.248;2023-10-13T05:38:02;108.10;;;36.55;;
82930;SDS011;72705;53.346;10.248;2023-10-13T05:40:56;113.97;;;37.33;;
82930;SDS011;72705;53.346;10.248;2023-10-13T05:43:41;101.60;;;36.20;;
82930;SDS011;72705;53.346;10.248;2023-10-13T05:46:25;100.82;;;36.55;;
82930;SDS011;72705;53.346;10.248;2023-10-13T05:48:50;98.20;;;37.17;;
82930;SDS011;72705;53.346;10.248;2023-10-13T05:51:27;107.55;;;40.03;;
82930;SDS011;72705;53.346;10.248;2023-10-13T05:54:11;101.35;;;36.88;;
82930;SDS011;72705;53.346;10.248;2023-10-13T05:56:38;97.10;;;39.80;;
82930;SDS011;72705;53.346;10.248;2023-10-13T05:59:26;103.85;;;37.45;;
82930;SDS011;72705;53.346;10.248;2023-10-13T06:02:10;99.70;;;39.00;;
82930;SDS011;72705;53.346;10.248;2023-10-13T06:04:54;102.75;;;37.50;;
82930;SDS011;72705;53.346;10.248;2023-10-13T06:07:38;100.72;;;40.30;;
82930;SDS011;72705;53.346;10.248;2023-10-13T06:10:22;97.40;;;35.22;;
82930;SDS011;72705;53.346;10.248;2023-10-13T06:13:06;93.32;;;37.28;;
82930;SDS011;72705;53.346;10.248;2023-10-13T06:15:50;103.43;;;36.80;;
82930;SDS011;72705;53.346;10.248;2023-10-13T06:18:34;97.32;;;35.05;;
82930;SDS011;72705;53.346;10.248;2023-10-13T06:21:19;90.38;;;34.92;;
82930;SDS011;72705;53.346;10.248;2023-10-13T06:24:03;89.95;;;33.30;;
82930;SDS011;72705;53.346;10.248;2023-10-13T06:26:48;94.90;;;38.53;;
82930;SDS011;72705;53.346;10.248;2023-10-13T06:29:32;97.50;;;36.85;;
82930;SDS011;72705;53.346;10.248;2023-10-13T06:31:58;86.95;;;37.13;;
82930;SDS011;72705;53.346;10.248;2023-10-13T06:34:29;78.95;;;33.38;;
82930;SDS011;72705;53.346;10.248;2023-10-13T06:37:10;78.10;;;33.17;;
82930;SDS011;72705;53.346;10.248;2023-10-13T06:39:48;79.50;;;33.55;;
82930;SDS011;72705;53.346;10.248;2023-10-13T06:42:14;81.75;;;35.55;;
82930;SDS011;72705;53.346;10.248;2023-10-13T06:44:41;77.45;;;33.95;;
82930;SDS011;72705;53.346;10.248;2023-10-13T06:47:10;78.10;;;35.22;;
82930;SDS011;72705;53.346;10.248;2023-10-13T06:49:36;76.28;;;33.17;;
82930;SDS011;72705;53.346;10.248;2023-10-13T06:52:04;82.97;;;35.53;;
82930;SDS011;72705;53.346;10.248;2023-10-13T06:54:34;92.75;;;38.53;;
82930;SDS011;72705;53.346;10.248;2023-10-13T06:57:00;88.05;;;36.75;;
82930;SDS011;72705;53.346;10.248;2023-10-13T07:01:57;84.03;;;32.85;;
82930;SDS011;72705;53.346;10.248;2023-10-13T07:04:34;93.32;;;39.17;;
82930;SDS011;72705;53.346;10.248;2023-10-13T07:07:04;90.70;;;36.83;;
82930;SDS011;72705;53.346;10.248;2023-10-13T07:09:31;83.05;;;33.85;;
82930;SDS011;72705;53.346;10.248;2023-10-13T07:14:26;82.00;;;31.75;;
82930;SDS011;72705;53.346;10.248;2023-10-13T07:17:05;77.93;;;31.45;;
82930;SDS011;72705;53.346;10.248;2023-10-13T07:19:32;81.55;;;34.78;;
82930;SDS011;72705;53.346;10.248;2023-10-13T07:21:58;76.13;;;29.48;;
82930;SDS011;72705;53.346;10.248;2023-10-13T07:24:28;79.85;;;33.97;;
82930;SDS011;72705;53.346;10.248;2023-10-13T07:26:56;77.47;;;31.80;;
82930;SDS011;72705;53.346;10.248;2023-10-13T07:29:30;67.63;;;28.27;;
82930;SDS011;72705;53.346;10.248;2023-10-13T07:31:55;73.40;;;32.05;;
82930;SDS011;72705;53.346;10.248;2023-10-13T07:34:21;68.22;;;30.88;;
82930;SDS011;72705;53.346;10.248;2023-10-13T07:36:56;73.25;;;31.55;;
82930;SDS011;72705;53.346;10.248;2023-10-13T07:41:51;76.28;;;33.83;;
82930;SDS011;72705;53.346;10.248;2023-10-13T07:44:28;69.18;;;29.27;;
82930;SDS011;72705;53.346;10.248;2023-10-13T07:46:57;71.70;;;29.88;;
82930;SDS011;72705;53.346;10.248;2023-10-13T07:49:32;69.30;;;29.63;;
82930;SDS011;72705;53.346;10.248;2023-10-13T07:52:03;77.13;;;32.47;;
82930;SDS011;72705;53.346;10.248;2023-10-13T07:54:52;58.72;;;26.02;;
82930;SDS011;72705;53.346;10.248;2023-10-13T07:57:39;56.78;;;25.17;;
82930;SDS011;72705;53.346;10.248;2023-10-13T08:00:21;58.13;;;24.27;;
82930;SDS011;72705;53.346;10.248;2023-10-13T08:03:00;55.13;;;25.67;;
82930;SDS011;72705;53.346;10.248;2023-10-13T08:05:45;56.88;;;23.75;;
82930;SDS011;72705;53.346;10.248;2023-10-13T08:08:43;40.60;;;20.50;;
82930;SDS011;72705;53.346;10.248;2023-10-13T08:11:12;48.63;;;22.10;;
82930;SDS011;72705;53.346;10.248;2023-10-13T08:13:48;45.95;;;23.20;;
82930;SDS011;72705;53.346;10.248;2023-10-13T08:16:28;46.65;;;23.48;;
82930;SDS011;72705;53.346;10.248;2023-10-13T08:19:11;53.58;;;24.48;;
82930;SDS011;72705;53.346;10.248;2023-10-13T08:21:40;47.33;;;22.75;;
82930;SDS011;72705;53.346;10.248;2023-10-13T08:26:40;41.92;;;20.58;;
82930;SDS011;72705;53.346;10.248;2023-10-13T08:29:24;43.40;;;22.60;;
82930;SDS011;72705;53.346;10.248;2023-10-13T08:31:54;43.55;;;21.02;;
82930;SDS011;72705;53.346;10.248;2023-10-13T08:34:29;24.95;;;15.60;;
82930;SDS011;72705;53.346;10.248;2023-10-13T08:37:04;35.85;;;18.42;;
82930;SDS011;72705;53.346;10.248;2023-10-13T08:39:48;33.75;;;17.02;;
82930;SDS011;72705;53.346;10.248;2023-10-13T08:42:43;29.27;;;15.48;;
82930;SDS011;72705;53.346;10.248;2023-10-13T08:47:51;28.75;;;15.68;;
82930;SDS011;72705;53.346;10.248;2023-10-13T08:53:13;27.45;;;14.82;;
82930;SDS011;72705;53.346;10.248;2023-10-13T08:56:01;21.02;;;10.68;;
82930;SDS011;72705;53.346;10.248;2023-10-13T08:58:32;23.55;;;12.52;;
82930;SDS011;72705;53.346;10.248;2023-10-13T09:01:17;24.35;;;12.25;;
82930;SDS011;72705;53.346;10.248;2023-10-13T09:04:05;20.30;;;11.73;;
82930;SDS011;72705;53.346;10.248;2023-10-13T09:06:47;21.17;;;11.70;;
82930;SDS011;72705;53.346;10.248;2023-10-13T09:09:33;20.67;;;12.93;;
82930;SDS011;72705;53.346;10.248;2023-10-13T09:12:10;20.88;;;10.90;;
82930;SDS011;72705;53.346;10.248;2023-10-13T09:14:41;19.30;;;11.18;;
82930;SDS011;72705;53.346;10.248;2023-10-13T09:17:11;16.98;;;10.70;;
82930;SDS011;72705;53.346;10.248;2023-10-13T09:19:52;17.02;;;8.57;;
82930;SDS011;72705;53.346;10.248;2023-10-13T09:22:21;16.98;;;10.63;;
82930;SDS011;72705;53.346;10.248;2023-10-13T09:25:00;16.30;;;10.32;;
82930;SDS011;72705;53.346;10.248;2023-10-13T09:27:28;16.85;;;10.43;;
82930;SDS011;72705;53.346;10.248;2023-10-13T09:30:00;16.42;;;9.68;;
82930;SDS011;72705;53.346;10.248;2023-10-13T09:35:26;13.10;;;8.27;;
82930;SDS011;72705;53.346;10.248;2023-10-13T09:37:53;13.57;;;7.90;;
82930;SDS011;72705;53.346;10.248;2023-10-13T09:40:22;11.43;;;6.85;;
82930;SDS011;72705;53.346;10.248;2023-10-13T09:43:01;11.45;;;6.72;;
82930;SDS011;72705;53.346;10.248;2023-10-13T09:45:32;9.68;;;5.78;;
82930;SDS011;72705;53.346;10.248;2023-10-13T09:48:03;12.80;;;6.15;;
82930;SDS011;72705;53.346;10.248;2023-10-13T09:50:41;12.15;;;6.80;;
82930;SDS011;72705;53.346;10.248;2023-10-13T09:53:10;13.45;;;6.95;;
82930;SDS011;72705;53.346;10.248;2023-10-13T09:55:40;11.85;;;6.43;;
82930;SDS011;72705;53.346;10.248;2023-10-13T09:58:09;10.48;;;6.63;;
82930;SDS011;72705;53.346;10.248;2023-10-13T10:00:46;12.35;;;6.13;;
82930;SDS011;72705;53.346;10.248;2023-10-13T10:05:59;14.95;;;6.78;;
82930;SDS011;72705;53.346;10.248;2023-10-13T10:08:32;14.50;;;6.50;;
82930;SDS011;72705;53.346;10.248;2023-10-13T10:11:18;17.00;;;7.70;;
82930;SDS011;72705;53.346;10.248;2023-10-13T10:14:04;12.80;;;7.38;;
82930;SDS011;72705;53.346;10.248;2023-10-13T10:16:45;14.00;;;7.57;;
82930;SDS011;72705;53.346;10.248;2023-10-13T10:19:20;14.23;;;7.38;;
82930;SDS011;72705;53.346;10.248;2023-10-13T10:21:45;13.75;;;8.57;;
82930;SDS011;72705;53.346;10.248;2023-10-13T10:24:14;12.68;;;7.70;;
82930;SDS011;72705;53.346;10.248;2023-10-13T10:26:52;16.42;;;10.10;;
82930;SDS011;72705;53.346;10.248;2023-10-13T10:29:18;15.77;;;8.82;;
82930;SDS011;72705;53.346;10.248;2023-10-13T10:31:43;13.87;;;7.40;;
82930;SDS011;72705;53.346;10.248;2023-10-13T10:34:14;16.45;;;8.40;;
82930;SDS011;72705;53.346;10.248;2023-10-13T10:36:45;15.63;;;7.85;;
82930;SDS011;72705;53.346;10.248;2023-10-13T10:39:11;16.23;;;8.43;;
82930;SDS011;72705;53.346;10.248;2023-10-13T10:41:37;14.07;;;8.32;;
82930;SDS011;72705;53.346;10.248;2023-10-13T10:44:12;17.38;;;9.70;;
82930;SDS011;72705;53.346;10.248;2023-10-13T10:46:41;10.95;;;6.78;;
82930;SDS011;72705;53.346;10.248;2023-10-13T10:49:18;16.02;;;9.43;;
82930;SDS011;72705;53.346;10.248;2023-10-13T10:51:53;17.33;;;8.95;;
82930;SDS011;72705;53.346;10.248;2023-10-13T10:54:23;15.27;;;8.55;;
82930;SDS011;72705;53.346;10.248;2023-10-13T10:56:55;13.38;;;7.68;;
82930;SDS011;72705;53.346;10.248;2023-10-13T10:59:21;18.83;;;9.27;;
82930;SDS011;72705;53.346;10.248;2023-10-13T11:01:50;14.82;;;7.78;;
82930;SDS011;72705;53.346;10.248;2023-10-13T11:04:18;17.15;;;8.10;;
82930;SDS011;72705;53.346;10.248;2023-10-13T11:06:55;17.35;;;8.63;;
82930;SDS011;72705;53.346;10.248;2023-10-13T11:09:26;13.35;;;7.78;;
82930;SDS011;72705;53.346;10.248;2023-10-13T11:11:56;13.88;;;8.15;;
82930;SDS011;72705;53.346;10.248;2023-10-13T11:14:43;13.20;;;8.10;;
82930;SDS011;72705;53.346;10.248;2023-10-13T11:17:18;20.20;;;7.78;;
82930;SDS011;72705;53.346;10.248;2023-10-13T11:19:51;19.00;;;8.38;;
82930;SDS011;72705;53.346;10.248;2023-10-13T11:22:17;13.45;;;7.35;;
82930;SDS011;72705;53.346;10.248;2023-10-13T11:25:07;12.27;;;7.05;;
82930;SDS011;72705;53.346;10.248;2023-10-13T11:27:40;18.38;;;7.10;;
82930;SDS011;72705;53.346;10.248;2023-10-13T11:30:16;20.17;;;7.82;;
82930;SDS011;72705;53.346;10.248;2023-10-13T11:33:31;13.07;;;7.07;;
82930;SDS011;72705;53.346;10.248;2023-10-13T11:35:34;14.23;;;7.68;;
82930;SDS011;72705;53.346;10.248;2023-10-13T11:40:55;14.80;;;7.07;;
82930;SDS011;72705;53.346;10.248;2023-10-13T11:46:11;12.80;;;6.80;;
82930;SDS011;72705;53.346;10.248;2023-10-13T11:48:41;11.20;;;7.45;;
82930;SDS011;72705;53.346;10.248;2023-10-13T11:51:08;11.75;;;6.80;;
82930;SDS011;72705;53.346;10.248;2023-10-13T11:53:51;11.70;;;7.47;;
82930;SDS011;72705;53.346;10.248;2023-10-13T11:56:17;13.57;;;5.95;;
82930;SDS011;72705;53.346;10.248;2023-10-13T11:58:45;13.18;;;6.88;;
82930;SDS011;72705;53.346;10.248;2023-10-13T12:01:11;10.05;;;5.63;;
82930;SDS011;72705;53.346;10.248;2023-10-13T12:03:37;13.52;;;6.18;;
82930;SDS011;72705;53.346;10.248;2023-10-13T12:06:21;13.15;;;6.55;;
82930;SDS011;72705;53.346;10.248;2023-10-13T12:09:02;14.73;;;6.93;;
82930;SDS011;72705;53.346;10.248;2023-10-13T12:11:45;17.77;;;6.43;;
82930;SDS011;72705;53.346;10.248;2023-10-13T12:14:12;13.40;;;6.75;;
82930;SDS011;72705;53.346;10.248;2023-10-13T12:16:46;13.70;;;6.80;;
82930;SDS011;72705;53.346;10.248;2023-10-13T12:19:25;16.10;;;7.72;;
82930;SDS011;72705;53.346;10.248;2023-10-13T12:21:55;14.82;;;8.45;;
82930;SDS011;72705;53.346;10.248;2023-10-13T12:24:22;10.77;;;6.10;;
82930;SDS011;72705;53.346;10.248;2023-10-13T12:27:00;15.13;;;6.60;;
82930;SDS011;72705;53.346;10.248;2023-10-13T12:29:26;15.27;;;6.22;;
82930;SDS011;72705;53.346;10.248;2023-10-13T12:31:55;21.42;;;6.80;;
82930;SDS011;72705;53.346;10.248;2023-10-13T12:34:35;16.33;;;6.72;;
82930;SDS011;72705;53.346;10.248;2023-10-13T12:37:19;12.40;;;6.30;;
82930;SDS011;72705;53.346;10.248;2023-10-13T12:40:06;12.07;;;6.25;;
82930;SDS011;72705;53.346;10.248;2023-10-13T12:43:03;12.85;;;6.32;;
82930;SDS011;72705;53.346;10.248;2023-10-13T12:45:50;17.50;;;6.95;;
82930;SDS011;72705;53.346;10.248;2023-10-13T12:48:36;18.15;;;7.40;;
82930;SDS011;72705;53.346;10.248;2023-10-13T12:51:23;13.07;;;6.57;;
82930;SDS011;72705;53.346;10.248;2023-10-13T12:53:57;14.35;;;6.65;;
82930;SDS011;72705;53.346;10.248;2023-10-13T12:56:41;16.52;;;6.78;;
82930;SDS011;72705;53.346;10.248;2023-10-13T12:59:10;14.97;;;7.00;;
82930;SDS011;72705;53.346;10.248;2023-10-13T13:01:39;14.88;;;6.65;;
82930;SDS011;72705;53.346;10.248;2023-10-13T13:04:10;13.95;;;6.45;;
82930;SDS011;72705;53.346;10.248;2023-10-13T13:06:46;13.35;;;7.43;;
82930;SDS011;72705;53.346;10.248;2023-10-13T13:09:12;18.13;;;6.45;;
82930;SDS011;72705;53.346;10.248;2023-10-13T13:11:38;15.85;;;6.68;;
82930;SDS011;72705;53.346;10.248;2023-10-13T13:14:06;17.88;;;6.70;;
82930;SDS011;72705;53.346;10.248;2023-10-13T13:16:33;16.05;;;7.55;;
82930;SDS011;72705;53.346;10.248;2023-10-13T13:18:59;14.40;;;6.60;;
82930;SDS011;72705;53.346;10.248;2023-10-13T13:21:28;15.68;;;7.07;;
82930;SDS011;72705;53.346;10.248;2023-10-13T13:23:53;20.50;;;7.20;;
82930;SDS011;72705;53.346;10.248;2023-10-13T13:26:22;15.48;;;7.00;;
82930;SDS011;72705;53.346;10.248;2023-10-13T13:28:55;16.08;;;7.25;;
82930;SDS011;72705;53.346;10.248;2023-10-13T13:33:54;18.50;;;7.43;;
82930;SDS011;72705;53.346;10.248;2023-10-13T13:36:26;13.07;;;6.63;;
82930;SDS011;72705;53.346;10.248;2023-10-13T13:38:52;23.00;;;7.47;;
82930;SDS011;72705;53.346;10.248;2023-10-13T13:41:23;16.30;;;6.90;;
82930;SDS011;72705;53.346;10.248;2023-10-13T13:43:49;19.88;;;6.90;;
82930;SDS011;72705;53.346;10.248;2023-10-13T13:46:19;17.30;;;7.85;;
82930;SDS011;72705;53.346;10.248;2023-10-13T13:48:54;14.52;;;8.18;;
82930;SDS011;72705;53.346;10.248;2023-10-13T13:51:32;14.75;;;7.68;;
82930;SDS011;72705;53.346;10.248;2023-10-13T13:53:59;13.35;;;6.97;;
82930;SDS011;72705;53.346;10.248;2023-10-13T13:56:25;18.17;;;7.10;;
82930;SDS011;72705;53.346;10.248;2023-10-13T13:58:59;15.75;;;6.95;;
82930;SDS011;72705;53.346;10.248;2023-10-13T14:01:32;14.13;;;7.85;;
82930;SDS011;72705;53.346;10.248;2023-10-13T14:04:00;16.52;;;8.23;;
82930;SDS011;72705;53.346;10.248;2023-10-13T14:06:30;13.55;;;6.78;;
82930;SDS011;72705;53.346;10.248;2023-10-13T14:09:00;18.35;;;8.13;;
82930;SDS011;72705;53.346;10.248;2023-10-13T14:11:40;12.88;;;6.95;;
82930;SDS011;72705;53.346;10.248;2023-10-13T14:16:54;19.02;;;8.05;;
82930;SDS011;72705;53.346;10.248;2023-10-13T14:22:15;21.48;;;8.10;;
82930;SDS011;72705;53.346;10.248;2023-10-13T14:24:49;16.55;;;8.10;;
82930;SDS011;72705;53.346;10.248;2023-10-13T14:27:22;17.05;;;7.78;;
82930;SDS011;72705;53.346;10.248;2023-10-13T14:29:50;19.02;;;7.25;;
82930;SDS011;72705;53.346;10.248;2023-10-13T14:32:30;14.63;;;7.18;;
82930;SDS011;72705;53.346;10.248;2023-10-13T14:34:56;17.13;;;7.63;;
82930;SDS011;72705;53.346;10.248;2023-10-13T14:37:22;18.17;;;7.75;;
82930;SDS011;72705;53.346;10.248;2023-10-13T14:39:54;20.83;;;7.30;;
82930;SDS011;72705;53.346;10.248;2023-10-13T14:42:27;15.80;;;7.47;;
82930;SDS011;72705;53.346;10.248;2023-10-13T14:44:54;17.27;;;7.82;;
82930;SDS011;72705;53.346;10.248;2023-10-13T14:47:34;20.75;;;8.85;;
82930;SDS011;72705;53.346;10.248;2023-10-13T14:50:06;14.13;;;6.93;;
82930;SDS011;72705;53.346;10.248;2023-10-13T14:52:46;18.23;;;6.50;;
82930;SDS011;72705;53.346;10.248;2023-10-13T14:55:19;17.25;;;7.70;;
82930;SDS011;72705;53.346;10.248;2023-10-13T14:57:48;14.93;;;7.07;;
82930;SDS011;72705;53.346;10.248;2023-10-13T15:00:15;19.75;;;7.95;;
82930;SDS011;72705;53.346;10.248;2023-10-13T15:02:49;20.55;;;9.60;;
82930;SDS011;72705;53.346;10.248;2023-10-13T15:05:19;18.88;;;8.35;;
82930;SDS011;72705;53.346;10.248;2023-10-13T15:07:45;21.02;;;7.63;;
82930;SDS011;72705;53.346;10.248;2023-10-13T15:10:13;22.35;;;8.48;;
82930;SDS011;72705;53.346;10.248;2023-10-13T15:12:42;20.77;;;8.30;;
82930;SDS011;72705;53.346;10.248;2023-10-13T15:15:13;23.02;;;8.00;;
82930;SDS011;72705;53.346;10.248;2023-10-13T15:17:47;19.42;;;7.90;;
82930;SDS011;72705;53.346;10.248;2023-10-13T15:20:15;22.55;;;7.40;;
82930;SDS011;72705;53.346;10.248;2023-10-13T15:22:46;25.55;;;8.57;;
82930;SDS011;72705;53.346;10.248;2023-10-13T15:25:19;16.45;;;6.95;;
82930;SDS011;72705;53.346;10.248;2023-10-13T15:30:34;20.58;;;7.97;;
82930;SDS011;72705;53.346;10.248;2023-10-13T15:33:32;18.55;;;7.57;;
82930;SDS011;72705;53.346;10.248;2023-10-13T15:35:58;15.52;;;7.15;;
82930;SDS011;72705;53.346;10.248;2023-10-13T15:38:23;22.10;;;8.35;;
82930;SDS011;72705;53.346;10.248;2023-10-13T15:40:52;20.10;;;9.05;;